Time;durP1;ratioP1;P1;durP2;ratioP2;P2;SDS_P1;SDS_P2;PMS_P1;PMS_P2;Temp;Humidity;BMP_temperature;BMP_pressure;BME280_temperature;BME280_humidity;BME280_pressure;Samples;Min_cycle;Max_cycle;Signal;HPM_P1;HPM_P2
2023/05/05 00:01:19;;;;;;;4.45;2.33;;;18.20;99.90;;;;;;5052408;28;20233;-75
2023/05/05 00:03:46;;;;;;;3.72;2.03;;;18.20;99.90;;;;;;5053173;28;20265;-78
2023/05/05 00:06:13;;;;;;;3.63;2.33;;;18.20;99.90;;;;;;5052682;28;20234;-84
2023/05/05 00:08:41;;;;;;;3.13;2.50;;;18.20;99.90;;;;;;5053040;28;20238;-83
2023/05/05 00:11:08;;;;;;;3.15;2.38;;;18.20;99.90;;;;;;5052753;28;20241;-86
2023/05/05 00:13:35;;;;;;;5.22;3.00;;;18.10;99.90;;;;;;5053142;28;20245;-87
2023/05/05 00:16:02;;;;;;;2.38;2.00;;;18.10;99.90;;;;;;5052485;28;20252;-79
2023/05/05 00:18:29;;;;;;;3.20;2.28;;;18.10;99.90;;;;;;5052784;28;20202;-81
2023/05/05 00:20:56;;;;;;;6.00;2.22;;;17.90;99.90;;;;;;5052516;28;20237;-82
2023/05/05 00:23:23;;;;;;;3.30;1.83;;;17.90;99.90;;;;;;5052860;28;20238;-82
2023/05/05 00:25:51;;;;;;;5.75;2.42;;;18.00;99.90;;;;;;5053069;28;20245;-80
2023/05/05 00:28:18;;;;;;;2.92;2.63;;;18.00;99.90;;;;;;5052205;28;20238;-80
2023/05/05 00:30:45;;;;;;;3.85;2.03;;;17.90;99.90;;;;;;5052413;28;20265;-76
2023/05/05 00:33:12;;;;;;;3.60;2.00;;;17.80;99.90;;;;;;5051955;28;20242;-83
2023/05/05 00:35:39;;;;;;;4.00;2.45;;;17.80;99.90;;;;;;5052379;28;20239;-81
2023/05/05 00:38:06;;;;;;;2.40;2.20;;;17.80;99.90;;;;;;5052145;28;20620;-72
2023/05/05 00:40:33;;;;;;;4.60;1.90;;;17.80;99.90;;;;;;5052379;28;20242;-84
2023/05/05 00:43:01;;;;;;;4.03;1.95;;;17.80;99.90;;;;;;5051507;28;20713;-81
2023/05/05 00:45:28;;;;;;;5.05;2.25;;;17.80;99.90;;;;;;5052125;28;20243;-81
2023/05/05 00:47:57;;;;;;;3.35;2.10;;;17.80;99.90;;;;;;5052006;28;20239;-76
2023/05/05 00:50:25;;;;;;;3.15;1.90;;;17.80;99.90;;;;;;5052299;28;20241;-83
2023/05/05 00:52:54;;;;;;;4.07;2.72;;;17.70;99.90;;;;;;5052185;28;20704;-79
2023/05/05 00:55:21;;;;;;;3.72;2.33;;;17.60;99.90;;;;;;5052316;28;20203;-82
2023/05/05 00:57:49;;;;;;;2.95;2.10;;;17.70;99.90;;;;;;5051528;28;20253;-76
2023/05/05 01:00:17;;;;;;;4.55;1.90;;;17.60;99.90;;;;;;5051386;28;20253;-79
2023/05/05 01:02:44;;;;;;;3.80;2.25;;;17.60;99.90;;;;;;5051720;28;20210;-88
2023/05/05 01:05:14;;;;;;;3.55;2.33;;;17.60;99.90;;;;;;5051887;28;20234;-77
2023/05/05 01:08:01;;;;;;;2.65;1.77;;;17.50;99.90;;;;;;5052106;28;20202;-83
2023/05/05 01:10:35;;;;;;;3.50;2.38;;;17.60;99.90;;;;;;5051796;28;20206;-86
2023/05/05 01:13:13;;;;;;;3.63;2.13;;;17.50;99.90;;;;;;5050917;28;20234;-82
2023/05/05 01:15:48;;;;;;;4.93;2.38;;;17.50;99.90;;;;;;5051693;28;20241;-83
2023/05/05 01:18:22;;;;;;;3.25;1.95;;;17.50;99.90;;;;;;5051612;28;20356;-79
2023/05/05 01:20:56;;;;;;;3.33;1.77;;;17.50;99.90;;;;;;5052004;28;20249;-87
2023/05/05 01:23:43;;;;;;;2.90;2.42;;;17.40;99.90;;;;;;5052123;28;20207;-81
2023/05/05 01:26:35;;;;;;;5.47;2.58;;;17.40;99.90;;;;;;5051252;28;20257;-78
2023/05/05 01:29:26;;;;;;;5.25;2.40;;;17.40;99.90;;;;;;5050958;28;20687;-79
2023/05/05 01:31:56;;;;;;;3.08;2.10;;;17.40;99.90;;;;;;5051776;28;20717;-80
2023/05/05 01:34:27;;;;;;;2.67;2.08;;;17.30;99.90;;;;;;5051781;28;20241;-87
2023/05/05 01:36:59;;;;;;;2.70;2.00;;;17.30;99.90;;;;;;5051730;28;20199;-82
2023/05/05 01:39:31;;;;;;;2.90;2.38;;;17.30;99.90;;;;;;5051437;28;20211;-84
2023/05/05 01:42:02;;;;;;;2.90;1.58;;;17.30;99.90;;;;;;5050352;28;20556;-78
2023/05/05 01:44:32;;;;;;;4.53;2.13;;;17.30;99.90;;;;;;5051089;28;20245;-75
2023/05/05 01:47:02;;;;;;;3.05;1.95;;;17.30;99.90;;;;;;5051090;28;20207;-86
2023/05/05 01:49:29;;;;;;;7.07;2.10;;;17.10;99.90;;;;;;5051241;28;20670;-81
2023/05/05 01:51:57;;;;;;;6.97;2.80;;;17.10;99.90;;;;;;5051008;28;20273;-71
2023/05/05 01:54:25;;;;;;;5.40;1.88;;;17.10;99.90;;;;;;5051315;28;20199;-72
2023/05/05 01:56:56;;;;;;;4.65;2.38;;;17.10;99.90;;;;;;5051300;28;20640;-80
2023/05/05 01:59:24;;;;;;;1.65;1.45;;;17.10;99.90;;;;;;5051456;28;20228;-77
2023/05/05 02:01:51;;;;;;;2.15;1.63;;;17.10;99.90;;;;;;5051518;28;20729;-81
2023/05/05 02:04:21;;;;;;;4.78;2.15;;;17.00;99.90;;;;;;5050829;28;20613;-80
2023/05/05 02:06:51;;;;;;;3.17;2.13;;;17.00;99.90;;;;;;5051332;28;20221;-83
2023/05/05 02:09:20;;;;;;;4.53;2.20;;;16.90;99.90;;;;;;5050758;28;20209;-79
2023/05/05 02:11:47;;;;;;;2.45;1.70;;;16.90;99.90;;;;;;5050979;28;20346;-82
2023/05/05 02:14:15;;;;;;;3.92;2.38;;;17.00;99.90;;;;;;5050900;28;20641;-82
2023/05/05 02:16:43;;;;;;;3.55;2.28;;;17.00;99.90;;;;;;5051216;28;20245;-87
2023/05/05 02:19:11;;;;;;;4.18;2.28;;;17.00;99.90;;;;;;5050755;28;20234;-78
2023/05/05 02:21:40;;;;;;;2.25;1.90;;;17.00;99.90;;;;;;5050983;28;20211;-80
2023/05/05 02:24:07;;;;;;;4.47;2.60;;;17.00;99.90;;;;;;5053516;28;20246;-76
2023/05/05 02:26:38;;;;;;;4.50;1.77;;;17.00;99.90;;;;;;5055358;28;20242;-83
2023/05/05 02:29:09;;;;;;;4.82;1.90;;;16.90;99.90;;;;;;5054438;28;20256;-83
2023/05/05 02:31:41;;;;;;;6.00;2.45;;;16.90;99.90;;;;;;5054425;28;20269;-81
2023/05/05 02:34:09;;;;;;;2.67;2.17;;;16.90;99.90;;;;;;5054190;28;20237;-81
2023/05/05 02:36:41;;;;;;;2.92;1.80;;;16.90;99.90;;;;;;5054629;28;20367;-82
2023/05/05 02:39:13;;;;;;;2.58;2.05;;;16.90;99.90;;;;;;5053744;28;20214;-81
2023/05/05 02:41:42;;;;;;;4.75;2.17;;;16.90;99.90;;;;;;5054193;28;20589;-81
2023/05/05 02:44:12;;;;;;;1.90;1.77;;;16.90;99.90;;;;;;5053989;28;20249;-80
2023/05/05 02:46:39;;;;;;;4.57;1.83;;;16.90;99.90;;;;;;5054463;28;20235;-79
2023/05/05 02:49:06;;;;;;;2.25;1.65;;;16.90;99.90;;;;;;5053918;28;20712;-81
2023/05/05 02:51:33;;;;;;;2.78;2.22;;;16.80;99.90;;;;;;5054482;28;20273;-82
2023/05/05 02:54:02;;;;;;;5.50;2.45;;;16.60;99.90;;;;;;5053935;28;20662;-84
2023/05/05 02:56:39;;;;;;;3.10;2.05;;;16.60;99.90;;;;;;5054580;28;20240;-78
2023/05/05 02:59:12;;;;;;;2.15;1.70;;;16.50;99.90;;;;;;5053710;28;20234;-79
2023/05/05 03:01:50;;;;;;;2.72;2.53;;;16.60;99.90;;;;;;5054187;28;20241;-79
2023/05/05 03:04:23;;;;;;;3.60;2.05;;;16.70;99.90;;;;;;5053666;28;20229;-78
2023/05/05 03:06:56;;;;;;;2.58;1.63;;;16.70;99.90;;;;;;5054186;28;20724;-80
2023/05/05 03:09:31;;;;;;;3.65;1.70;;;16.70;99.90;;;;;;5053951;28;20210;-80
2023/05/05 03:12:02;;;;;;;1.65;1.55;;;16.70;99.90;;;;;;5053276;28;20256;-78
2023/05/05 03:14:35;;;;;;;5.40;2.03;;;16.70;99.90;;;;;;5053587;28;20560;-70
2023/05/05 03:17:03;;;;;;;3.13;1.63;;;16.70;99.90;;;;;;5053291;28;20207;-79
2023/05/05 03:19:31;;;;;;;2.30;1.83;;;16.60;99.90;;;;;;5054075;28;20255;-76
2023/05/05 03:21:58;;;;;;;1.92;1.52;;;16.70;99.90;;;;;;5053181;28;20291;-79
2023/05/05 03:24:27;;;;;;;3.25;2.08;;;16.50;99.90;;;;;;5053537;28;20698;-75
2023/05/05 03:26:54;;;;;;;4.22;1.92;;;16.50;99.90;;;;;;5053769;28;20604;-71
2023/05/05 03:29:21;;;;;;;2.83;1.55;;;16.40;99.90;;;;;;5053607;28;20630;-75
2023/05/05 03:31:48;;;;;;;2.65;2.15;;;16.40;99.90;;;;;;5053603;28;20324;-75
2023/05/05 03:34:14;;;;;;;2.03;1.60;;;16.40;99.90;;;;;;5052122;28;20242;-83
2023/05/05 03:36:41;;;;;;;3.60;2.13;;;16.40;99.90;;;;;;5053285;28;20234;-81
2023/05/05 03:39:09;;;;;;;7.63;2.35;;;16.40;99.90;;;;;;5052765;28;20245;-80
2023/05/05 03:41:37;;;;;;;4.47;2.15;;;16.40;99.90;;;;;;5053332;28;20293;-81
2023/05/05 03:44:05;;;;;;;3.60;2.53;;;16.30;99.90;;;;;;5053156;28;20230;-79
2023/05/05 03:46:32;;;;;;;3.85;1.60;;;16.40;99.90;;;;;;5053138;28;20693;-72
2023/05/05 03:48:59;;;;;;;2.85;2.28;;;16.50;99.90;;;;;;5053098;28;20344;-83
2023/05/05 03:51:26;;;;;;;2.10;1.63;;;16.50;99.90;;;;;;5053361;28;20286;-88
2023/05/05 03:53:53;;;;;;;3.08;2.00;;;16.40;99.90;;;;;;5053440;28;20207;-80
2023/05/05 03:56:20;;;;;;;5.95;2.22;;;16.40;99.90;;;;;;5053634;28;20249;-82
2023/05/05 03:58:49;;;;;;;5.00;1.98;;;16.40;99.90;;;;;;5053245;28;20247;-81
2023/05/05 04:01:15;;;;;;;4.28;2.13;;;16.40;99.90;;;;;;5052574;28;20246;-83
2023/05/05 04:03:42;;;;;;;3.80;1.98;;;16.40;99.90;;;;;;5053152;28;20234;-84
2023/05/05 04:06:09;;;;;;;3.65;2.05;;;16.40;99.90;;;;;;5052679;28;20238;-81
2023/05/05 04:08:36;;;;;;;4.07;2.00;;;16.40;99.90;;;;;;5053478;28;20206;-84
2023/05/05 04:11:03;;;;;;;3.78;2.38;;;16.40;99.90;;;;;;5052620;28;20238;-72
2023/05/05 04:13:30;;;;;;;2.40;2.17;;;16.30;99.90;;;;;;5053107;28;20266;-84
2023/05/05 04:15:58;;;;;;;2.72;2.20;;;16.30;99.90;;;;;;5052671;28;20241;-83
2023/05/05 04:18:25;;;;;;;2.90;1.88;;;16.30;99.90;;;;;;5052711;28;20293;-84
2023/05/05 04:20:52;;;;;;;5.15;2.00;;;16.30;99.90;;;;;;5052993;28;20241;-78
2023/05/05 04:23:19;;;;;;;2.63;2.33;;;16.30;99.90;;;;;;5052656;28;20215;-84
2023/05/05 04:25:46;;;;;;;3.33;1.73;;;16.30;99.90;;;;;;5052996;28;20227;-84
2023/05/05 04:28:13;;;;;;;4.85;2.25;;;16.30;99.90;;;;;;5052437;28;20241;-79
2023/05/05 04:30:40;;;;;;;5.65;2.75;;;16.20;99.90;;;;;;5052675;28;20242;-82
2023/05/05 04:33:08;;;;;;;2.75;2.20;;;16.20;99.90;;;;;;5052236;28;20311;-85
2023/05/05 04:35:35;;;;;;;3.97;2.85;;;16.20;99.90;;;;;;5052561;28;20238;-85
2023/05/05 04:38:02;;;;;;;3.03;2.20;;;16.20;99.90;;;;;;5052438;28;20234;-82
2023/05/05 04:40:29;;;;;;;2.55;2.28;;;16.20;99.90;;;;;;5052512;28;20238;-81
2023/05/05 04:42:56;;;;;;;2.90;1.88;;;16.20;99.90;;;;;;5052123;28;20239;-71
2023/05/05 04:45:23;;;;;;;2.50;2.30;;;16.00;99.90;;;;;;5052718;28;20238;-82
2023/05/05 04:47:50;;;;;;;3.85;1.90;;;16.00;99.90;;;;;;5052477;28;20242;-80
2023/05/05 04:50:18;;;;;;;3.70;2.22;;;16.00;99.90;;;;;;5051904;28;20238;-83
2023/05/05 04:52:45;;;;;;;2.58;1.88;;;16.00;99.90;;;;;;5052160;28;20292;-79
2023/05/05 04:55:12;;;;;;;2.60;2.28;;;16.00;99.90;;;;;;5051869;28;20249;-86
2023/05/05 04:57:39;;;;;;;1.63;1.50;;;16.00;99.90;;;;;;5052650;28;20203;-84
2023/05/05 05:00:08;;;;;;;2.47;2.08;;;16.10;99.90;;;;;;5050756;28;20207;-80
2023/05/05 05:02:36;;;;;;;2.58;2.38;;;16.10;99.90;;;;;;5051764;28;20214;-80
2023/05/05 05:05:03;;;;;;;2.95;2.13;;;16.10;99.90;;;;;;5051617;28;20476;-84
2023/05/05 05:07:31;;;;;;;2.75;1.98;;;16.10;99.90;;;;;;5052399;28;20243;-79
2023/05/05 05:09:58;;;;;;;2.72;2.00;;;16.00;99.90;;;;;;5051700;28;20234;-85
2023/05/05 05:12:25;;;;;;;2.75;2.00;;;16.10;99.90;;;;;;5052100;28;20269;-81
2023/05/05 05:14:52;;;;;;;7.05;1.98;;;16.10;99.90;;;;;;5051908;28;20231;-87
2023/05/05 05:17:21;;;;;;;2.38;2.13;;;16.00;99.90;;;;;;5052148;28;20238;-82
2023/05/05 05:19:48;;;;;;;3.00;2.28;;;16.00;99.90;;;;;;5050363;28;20693;-79
2023/05/05 05:22:15;;;;;;;2.33;1.77;;;16.00;99.90;;;;;;5048945;28;20242;-79
2023/05/05 05:24:43;;;;;;;2.95;2.53;;;16.00;99.90;;;;;;5051181;28;20736;-76
2023/05/05 05:27:10;;;;;;;2.67;1.92;;;16.00;99.90;;;;;;5050502;28;20629;-70
2023/05/05 05:29:37;;;;;;;2.17;1.70;;;16.00;99.90;;;;;;5051332;28;20222;-81
2023/05/05 05:32:04;;;;;;;2.80;1.95;;;16.10;99.90;;;;;;5050748;28;20273;-80
2023/05/05 05:34:31;;;;;;;1.88;1.55;;;16.00;99.90;;;;;;5051146;28;20246;-74
2023/05/05 05:36:58;;;;;;;2.85;2.10;;;16.00;99.90;;;;;;5050355;28;20317;-81
2023/05/05 05:39:25;;;;;;;4.63;2.22;;;16.10;99.90;;;;;;5051042;28;20230;-82
2023/05/05 05:41:53;;;;;;;3.10;2.42;;;16.10;99.90;;;;;;5049898;28;20242;-86
2023/05/05 05:44:20;;;;;;;3.47;2.22;;;16.10;99.90;;;;;;5055563;28;20246;-85
2023/05/05 05:46:47;;;;;;;3.95;2.67;;;16.20;99.90;;;;;;5065090;28;20245;-77
2023/05/05 05:49:15;;;;;;;3.17;1.88;;;16.20;99.90;;;;;;5050302;28;20230;-79
2023/05/05 05:51:42;;;;;;;2.30;2.10;;;16.20;99.90;;;;;;5050387;28;20207;-78
2023/05/05 05:54:09;;;;;;;3.50;2.10;;;16.40;99.90;;;;;;5050223;28;20332;-76
2023/05/05 05:56:35;;;;;;;3.90;1.88;;;16.40;99.90;;;;;;5050242;28;20242;-79
2023/05/05 05:59:06;;;;;;;2.17;1.65;;;16.40;99.90;;;;;;5050019;28;20752;-78
2023/05/05 06:01:34;;;;;;;2.92;1.83;;;16.50;99.90;;;;;;5050365;28;20301;-77
2023/05/05 06:04:01;;;;;;;7.85;1.77;;;16.50;99.90;;;;;;5050372;28;20206;-79
2023/05/05 06:06:28;;;;;;;2.30;2.08;;;16.50;99.90;;;;;;5050462;28;20203;-77
2023/05/05 06:08:55;;;;;;;3.65;1.40;;;16.60;99.90;;;;;;5049987;28;20245;-77
2023/05/05 06:11:22;;;;;;;3.05;2.15;;;16.70;99.90;;;;;;5050585;28;20250;-78
2023/05/05 06:13:49;;;;;;;3.42;2.70;;;16.70;99.90;;;;;;5049995;28;20745;-75
2023/05/05 06:16:17;;;;;;;2.30;1.90;;;16.70;99.90;;;;;;5050709;28;20295;-76
2023/05/05 06:18:44;;;;;;;7.03;2.40;;;16.80;99.90;;;;;;5049771;28;20218;-77
2023/05/05 06:21:12;;;;;;;3.42;2.70;;;16.80;99.90;;;;;;5050232;28;20246;-75
2023/05/05 06:23:39;;;;;;;3.30;1.85;;;16.80;99.90;;;;;;5047069;28;20217;-74
2023/05/05 06:26:06;;;;;;;6.43;2.15;;;16.80;99.90;;;;;;5039970;28;20205;-74
2023/05/05 06:28:32;;;;;;;5.07;2.17;;;17.00;99.90;;;;;;5048741;28;20226;-74
2023/05/05 06:30:59;;;;;;;4.72;2.60;;;17.10;99.90;;;;;;5032304;28;20246;-74
2023/05/05 06:33:28;;;;;;;3.58;2.35;;;17.10;99.90;;;;;;5030310;28;20235;-74
2023/05/05 06:35:54;;;;;;;2.83;2.08;;;17.10;99.90;;;;;;5039013;28;20203;-74
2023/05/05 06:38:21;;;;;;;4.72;2.42;;;17.20;99.90;;;;;;5050332;28;20238;-74
2023/05/05 06:40:49;;;;;;;3.20;2.22;;;17.20;99.90;;;;;;5050737;28;20689;-74
2023/05/05 06:43:16;;;;;;;2.20;2.10;;;17.20;99.90;;;;;;5068393;28;20242;-74
2023/05/05 06:45:43;;;;;;;6.57;2.85;;;17.20;99.90;;;;;;5063441;28;20296;-74
2023/05/05 06:48:10;;;;;;;4.38;2.55;;;17.40;99.90;;;;;;5050063;28;20238;-74
2023/05/05 06:50:38;;;;;;;6.00;2.33;;;17.60;99.90;;;;;;5050113;28;20336;-74
2023/05/05 06:53:05;;;;;;;1.60;1.50;;;17.80;99.90;;;;;;5049653;28;20327;-75
2023/05/05 06:55:32;;;;;;;2.25;1.55;;;17.90;99.90;;;;;;5049084;28;20246;-73
2023/05/05 06:57:59;;;;;;;2.15;1.58;;;17.90;99.90;;;;;;5030147;28;20251;-74
2023/05/05 07:00:26;;;;;;;2.33;1.40;;;18.00;99.90;;;;;;5030562;28;20240;-78
2023/05/05 07:02:53;;;;;;;4.10;1.73;;;18.10;99.90;;;;;;5029861;28;20243;-74
2023/05/05 07:05:20;;;;;;;1.20;1.10;;;18.00;99.90;;;;;;5030136;28;20687;-75
2023/05/05 07:07:52;;;;;;;9.07;1.73;;;18.10;99.90;;;;;;5029831;28;20755;-75
2023/05/05 07:10:19;;;;;;;3.22;1.75;;;18.20;99.90;;;;;;5043019;28;20211;-74
2023/05/05 07:12:46;;;;;;;1.67;1.20;;;18.20;99.90;;;;;;5043169;28;20328;-74
2023/05/05 07:15:13;;;;;;;1.30;1.20;;;18.40;99.90;;;;;;5033752;28;20207;-74
2023/05/05 07:17:41;;;;;;;1.30;1.20;;;18.50;99.90;;;;;;5033419;28;20253;-75
2023/05/05 07:20:09;;;;;;;1.90;1.70;;;18.50;99.90;;;;;;5033800;28;20203;-73
2023/05/05 07:22:35;;;;;;;6.28;1.45;;;18.60;99.90;;;;;;5033682;28;20247;-74
2023/05/05 07:25:05;;;;;;;2.10;1.50;;;18.70;99.90;;;;;;5042636;28;20251;-73
2023/05/05 07:27:32;;;;;;;4.53;1.52;;;18.70;99.90;;;;;;5053378;28;20272;-73
2023/05/05 07:30:00;;;;;;;2.28;1.30;;;18.90;99.90;;;;;;5035239;28;20203;-73
2023/05/05 07:32:27;;;;;;;3.22;1.02;;;19.00;99.90;;;;;;5033406;28;20231;-74
2023/05/05 07:34:54;;;;;;;4.05;1.58;;;19.00;99.90;;;;;;5032753;28;20261;-73
2023/05/05 07:37:20;;;;;;;1.25;1.13;;;18.90;99.90;;;;;;5033113;28;20234;-73
2023/05/05 07:39:47;;;;;;;1.67;1.40;;;19.00;99.90;;;;;;5032632;28;20238;-74
2023/05/05 07:42:16;;;;;;;2.05;1.45;;;19.00;99.90;;;;;;5050693;28;20199;-73
2023/05/05 07:44:43;;;;;;;2.80;1.27;;;19.10;99.90;;;;;;5052861;28;20230;-74
2023/05/05 07:47:10;;;;;;;1.67;1.58;;;19.20;99.90;;;;;;5052853;28;20246;-74
2023/05/05 07:49:36;;;;;;;1.75;1.27;;;19.20;99.90;;;;;;5052873;28;20245;-74
2023/05/05 07:52:03;;;;;;;2.55;2.30;;;19.30;99.90;;;;;;5051322;28;20664;-74
2023/05/05 07:54:30;;;;;;;2.47;1.30;;;19.40;99.90;;;;;;5052804;28;20277;-74
2023/05/05 07:56:57;;;;;;;2.15;1.35;;;19.40;99.90;;;;;;5045847;28;20736;-78
2023/05/05 07:59:25;;;;;;;3.42;1.70;;;19.60;99.90;;;;;;5046579;28;20238;-72
2023/05/05 08:01:52;;;;;;;1.90;1.38;;;19.60;99.90;;;;;;5052193;28;20261;-71
2023/05/05 08:04:19;;;;;;;3.65;1.83;;;19.60;99.90;;;;;;5052777;28;20238;-71
2023/05/05 08:06:46;;;;;;;2.47;1.55;;;19.80;99.90;;;;;;5046986;28;20647;-72
2023/05/05 08:09:13;;;;;;;1.65;1.50;;;19.80;99.90;;;;;;5034413;28;20239;-73
2023/05/05 08:11:40;;;;;;;3.10;1.52;;;19.90;99.90;;;;;;5037517;28;20209;-73
2023/05/05 08:14:08;;;;;;;2.25;1.73;;;19.90;99.90;;;;;;5051680;28;20238;-71
2023/05/05 08:16:36;;;;;;;6.72;1.30;;;19.90;99.90;;;;;;5051373;28;20249;-72
2023/05/05 08:19:03;;;;;;;2.67;1.65;;;20.00;99.90;;;;;;5031714;28;20242;-75
2023/05/05 08:21:30;;;;;;;2.05;1.85;;;19.80;99.90;;;;;;5032029;28;20208;-71
2023/05/05 08:23:57;;;;;;;3.97;2.08;;;19.90;99.90;;;;;;5037873;28;20231;-72
2023/05/05 08:26:24;;;;;;;5.55;1.77;;;19.90;99.90;;;;;;5052063;28;20242;-75
2023/05/05 08:28:54;;;;;;;6.13;1.88;;;19.90;99.90;;;;;;5052081;28;20206;-75
2023/05/05 08:31:21;;;;;;;2.15;1.60;;;19.90;99.90;;;;;;5052060;28;20590;-72
2023/05/05 08:33:49;;;;;;;2.05;1.73;;;20.30;99.90;;;;;;5051798;28;20268;-72
2023/05/05 08:36:16;;;;;;;6.25;2.00;;;20.30;99.90;;;;;;5051933;28;20209;-71
2023/05/05 08:38:43;;;;;;;2.10;1.60;;;20.20;99.90;;;;;;5051542;28;20234;-71
2023/05/05 08:41:13;;;;;;;3.78;1.73;;;20.20;99.90;;;;;;5051891;28;20261;-71
2023/05/05 08:43:40;;;;;;;1.83;1.50;;;20.30;99.90;;;;;;5051616;28;20242;-71
2023/05/05 08:46:11;;;;;;;2.75;2.00;;;20.50;99.90;;;;;;5051664;28;20202;-70
2023/05/05 08:48:41;;;;;;;2.92;1.92;;;20.60;99.90;;;;;;5051852;28;20207;-70
2023/05/05 08:51:10;;;;;;;3.50;2.30;;;20.80;99.90;;;;;;5051263;28;20619;-70
2023/05/05 08:53:48;;;;;;;2.78;2.00;;;21.00;99.90;;;;;;5041797;28;20262;-70
2023/05/05 08:56:16;;;;;;;2.90;1.85;;;21.30;99.90;;;;;;5047236;28;20690;-71
2023/05/05 08:58:45;;;;;;;2.38;1.58;;;21.10;99.90;;;;;;5051611;28;20261;-70
2023/05/05 09:01:14;;;;;;;2.75;1.52;;;20.90;99.90;;;;;;5049932;28;20222;-70
2023/05/05 09:03:41;;;;;;;1.80;1.67;;;21.00;99.90;;;;;;5044527;28;20210;-72
2023/05/05 09:06:09;;;;;;;2.83;1.63;;;21.20;99.90;;;;;;5050980;28;20234;-73
2023/05/05 09:08:37;;;;;;;3.22;1.90;;;21.40;99.90;;;;;;5051618;28;20202;-71
2023/05/05 09:11:04;;;;;;;3.92;2.38;;;21.60;99.90;;;;;;5051166;28;20203;-71
2023/05/05 09:13:31;;;;;;;3.33;2.17;;;21.70;99.90;;;;;;5042400;28;20262;-71
2023/05/05 09:15:58;;;;;;;2.22;2.03;;;21.80;99.90;;;;;;5031345;28;20674;-71
2023/05/05 09:18:25;;;;;;;3.83;2.15;;;22.20;99.90;;;;;;5031310;28;20231;-71
2023/05/05 09:20:52;;;;;;;2.40;2.20;;;22.50;99.90;;;;;;5030720;28;20701;-71
2023/05/05 09:23:21;;;;;;;3.97;2.45;;;22.80;99.90;;;;;;5031473;28;20235;-70
2023/05/05 09:26:03;;;;;;;2.40;1.98;;;23.10;99.90;;;;;;5030838;28;20573;-71
2023/05/05 09:28:30;;;;;;;2.88;2.25;;;23.20;99.90;;;;;;5031445;28;20697;-70
2023/05/05 09:31:11;;;;;;;2.08;1.92;;;23.70;99.90;;;;;;5030709;28;20227;-69
2023/05/05 09:33:39;;;;;;;3.15;2.10;;;24.30;99.90;;;;;;5030161;28;20270;-73
2023/05/05 09:36:06;;;;;;;4.32;2.00;;;25.00;99.90;;;;;;5030870;28;20238;-73
2023/05/05 09:38:35;;;;;;;3.30;2.17;;;24.80;99.90;;;;;;5031489;28;20243;-73
2023/05/05 09:41:02;;;;;;;2.50;2.13;;;24.60;99.90;;;;;;5031050;28;20210;-73
2023/05/05 09:43:29;;;;;;;2.55;1.92;;;24.40;99.90;;;;;;5030744;28;20258;-73
2023/05/05 09:46:06;;;;;;;3.13;2.78;;;24.20;99.90;;;;;;5030620;28;20211;-73
2023/05/05 09:48:33;;;;;;;4.07;2.08;;;24.40;99.90;;;;;;5031028;28;20586;-74
2023/05/05 09:51:00;;;;;;;3.10;2.10;;;24.60;99.90;;;;;;5030655;28;20235;-73
2023/05/05 09:53:27;;;;;;;2.72;1.92;;;24.20;99.90;;;;;;5030689;28;20263;-73
2023/05/05 09:55:56;;;;;;;2.63;2.00;;;24.40;99.90;;;;;;5030385;28;20239;-72
2023/05/05 09:58:24;;;;;;;4.38;1.90;;;24.80;99.90;;;;;;5030731;28;20246;-73
2023/05/05 10:00:52;;;;;;;3.15;2.05;;;25.20;99.90;;;;;;5030501;28;20638;-72
2023/05/05 10:03:19;;;;;;;3.00;2.72;;;26.20;99.90;;;;;;5044766;28;20249;-72
2023/05/05 10:05:51;;;;;;;3.50;3.13;;;27.60;99.90;;;;;;5049665;28;20234;-73
2023/05/05 10:08:19;;;;;;;3.97;2.70;;;28.10;99.90;;;;;;5040040;28;20210;-74
2023/05/05 10:10:55;;;;;;;3.00;2.67;;;27.80;99.90;;;;;;5049774;28;20227;-76
2023/05/05 10:13:23;;;;;;;2.67;2.47;;;27.80;99.90;;;;;;5044079;28;20238;-75
2023/05/05 10:15:51;;;;;;;1.90;1.70;;;27.90;99.90;;;;;;5045311;28;20257;-75
2023/05/05 10:18:21;;;;;;;4.75;2.38;;;27.90;99.90;;;;;;5047595;28;20245;-77
2023/05/05 10:20:55;;;;;;;3.33;1.98;;;28.10;99.90;;;;;;5052622;28;20202;-72
2023/05/05 10:23:24;;;;;;;3.25;2.30;;;28.30;99.90;;;;;;5047696;28;20226;-75
2023/05/05 10:26:00;;;;;;;2.05;1.88;;;27.80;99.90;;;;;;5049873;28;20209;-74
2023/05/05 10:28:33;;;;;;;4.18;2.10;;;26.60;99.90;;;;;;5050037;28;20674;-75
2023/05/05 10:31:02;;;;;;;2.72;2.17;;;25.80;99.90;;;;;;5049918;28;20253;-73
2023/05/05 10:33:35;;;;;;;2.45;2.22;;;25.00;99.90;;;;;;5049063;28;20242;-72
2023/05/05 10:36:05;;;;;;;3.95;1.80;;;24.70;99.90;;;;;;5033061;28;20215;-71
2023/05/05 10:38:32;;;;;;;3.67;2.22;;;24.50;99.90;;;;;;5048296;28;20211;-71
2023/05/05 10:41:01;;;;;;;4.20;2.75;;;24.30;99.90;;;;;;5048470;28;20696;-74
2023/05/05 10:43:30;;;;;;;2.97;1.92;;;24.30;99.90;;;;;;5049066;28;20206;-71
2023/05/05 10:45:58;;;;;;;3.45;2.42;;;24.50;99.90;;;;;;5053456;28;20207;-71
2023/05/05 10:48:34;;;;;;;2.88;1.95;;;24.40;99.90;;;;;;5049325;28;20207;-71
2023/05/05 10:51:12;;;;;;;2.97;2.35;;;24.30;99.90;;;;;;5053191;28;20272;-75
2023/05/05 10:53:48;;;;;;;4.97;2.78;;;24.20;99.90;;;;;;5053469;28;20216;-69
2023/05/05 10:56:24;;;;;;;2.75;2.20;;;24.10;99.90;;;;;;5051071;28;20334;-69
2023/05/05 10:58:51;;;;;;;6.00;2.35;;;24.20;99.90;;;;;;5053088;28;20296;-72
2023/05/05 11:01:30;;;;;;;3.60;2.45;;;24.30;99.90;;;;;;5053461;28;20250;-69
2023/05/05 11:04:20;;;;;;;2.55;2.30;;;24.30;99.90;;;;;;5052122;28;20294;-69
2023/05/05 11:07:22;;;;;;;3.42;2.38;;;24.30;99.90;;;;;;5051372;28;20202;-72
2023/05/05 11:09:56;;;;;;;3.83;2.20;;;24.30;99.90;;;;;;5048005;28;20585;-68
2023/05/05 11:12:24;;;;;;;5.45;2.83;;;24.10;99.90;;;;;;5053653;28;20647;-68
2023/05/05 11:15:29;;;;;;;7.10;2.55;;;24.00;99.90;;;;;;5052511;28;20292;-72
2023/05/05 11:17:56;;;;;;;3.33;2.63;;;23.60;99.90;;;;;;5052737;28;20241;-71
2023/05/05 11:20:57;;;;;;;2.53;2.33;;;23.40;99.90;;;;;;5052792;28;20242;-72
2023/05/05 11:23:23;;;;;;;2.80;2.22;;;23.80;99.90;;;;;;5036486;28;20663;-73
2023/05/05 11:25:51;;;;;;;4.47;2.95;;;24.00;99.90;;;;;;5052949;28;20200;-69
2023/05/05 11:28:22;;;;;;;2.75;2.55;;;23.90;99.90;;;;;;5053127;28;20696;-70
2023/05/05 11:31:17;;;;;;;2.15;2.05;;;23.80;99.90;;;;;;5052398;28;20195;-72
2023/05/05 11:33:44;;;;;;;5.05;2.30;;;23.70;99.90;;;;;;5052266;28;20245;-70
2023/05/05 11:36:12;;;;;;;3.67;2.50;;;24.00;99.90;;;;;;5051256;28;20218;-69
2023/05/05 11:38:56;;;;;;;4.10;2.75;;;24.20;99.90;;;;;;5049966;28;20238;-71
2023/05/05 11:41:42;;;;;;;5.95;2.58;;;24.30;99.90;;;;;;5041064;28;20238;-70
2023/05/05 11:44:11;;;;;;;2.97;2.67;;;24.40;99.90;;;;;;5052828;28;20218;-71
2023/05/05 11:46:39;;;;;;;2.42;2.10;;;24.50;99.90;;;;;;5051774;28;20238;-71
2023/05/05 11:49:07;;;;;;;3.75;1.95;;;24.60;99.90;;;;;;5051738;28;20203;-71
2023/05/05 11:51:34;;;;;;;4.10;2.40;;;24.70;99.90;;;;;;5052793;28;20300;-71
2023/05/05 11:54:01;;;;;;;2.97;2.35;;;24.40;99.90;;;;;;5052270;28;20281;-70
2023/05/05 11:56:27;;;;;;;3.20;2.30;;;24.40;99.90;;;;;;5051741;28;20246;-71
2023/05/05 11:59:08;;;;;;;3.50;2.20;;;24.50;99.90;;;;;;5051688;28;20234;-71
2023/05/05 12:01:39;;;;;;;2.60;2.08;;;24.30;99.90;;;;;;5051840;28;20753;-70
2023/05/05 12:04:08;;;;;;;2.33;2.13;;;24.30;99.90;;;;;;5051518;28;20226;-72
2023/05/05 12:06:34;;;;;;;5.13;2.70;;;24.40;99.90;;;;;;5052549;28;20235;-71
2023/05/05 12:09:02;;;;;;;2.92;2.67;;;24.50;99.90;;;;;;5051920;28;20705;-70
2023/05/05 12:11:29;;;;;;;4.72;2.47;;;24.40;99.90;;;;;;5047978;28;20289;-70
2023/05/05 12:14:10;;;;;;;3.72;3.25;;;24.20;99.90;;;;;;5030316;28;20294;-71
2023/05/05 12:16:39;;;;;;;11.30;2.35;;;24.10;99.90;;;;;;5040275;28;20198;-70
2023/05/05 12:19:06;;;;;;;2.47;2.28;;;24.30;99.90;;;;;;5051977;28;20203;-70
2023/05/05 12:21:33;;;;;;;6.30;3.25;;;24.40;99.90;;;;;;5052424;28;20213;-71
2023/05/05 12:24:01;;;;;;;4.03;2.50;;;24.40;99.90;;;;;;5051828;28;20234;-72
2023/05/05 12:26:30;;;;;;;5.93;2.40;;;24.50;99.90;;;;;;5052328;28;20207;-70
2023/05/05 12:28:58;;;;;;;2.90;2.05;;;24.50;99.90;;;;;;5041677;28;20560;-71
2023/05/05 12:31:34;;;;;;;2.88;2.67;;;24.60;99.90;;;;;;5032350;28;20242;-72
2023/05/05 12:34:03;;;;;;;2.67;2.47;;;24.50;99.90;;;;;;5031764;28;20603;-71
2023/05/05 12:36:32;;;;;;;4.53;2.10;;;24.60;99.90;;;;;;5032036;28;20231;-73
2023/05/05 12:38:59;;;;;;;2.58;2.20;;;24.70;99.90;;;;;;5031661;28;20242;-72
2023/05/05 12:41:26;;;;;;;2.30;1.98;;;24.80;99.90;;;;;;5032102;28;20647;-71
2023/05/05 12:43:55;;;;;;;5.07;2.00;;;24.90;99.90;;;;;;5031444;28;20235;-71
2023/05/05 12:46:23;;;;;;;3.92;2.53;;;24.90;99.90;;;;;;5031928;28;20298;-70
2023/05/05 12:49:00;;;;;;;2.63;2.05;;;24.90;99.90;;;;;;5031579;28;20214;-72
2023/05/05 12:51:28;;;;;;;5.10;2.28;;;24.90;99.90;;;;;;5031846;28;20297;-71
2023/05/05 12:54:03;;;;;;;6.78;3.22;;;24.90;99.90;;;;;;5031325;28;20230;-70
2023/05/05 12:56:35;;;;;;;2.72;2.42;;;24.90;99.90;;;;;;5031134;28;20214;-70
2023/05/05 12:59:03;;;;;;;2.25;2.05;;;24.90;99.90;;;;;;5031424;28;20239;-69